createdAt,value
2023-03-04T00:01:18.017Z,22.10
2023-03-04T00:04:04.214Z,20.27
2023-03-04T00:06:50.177Z,20.83
2023-03-04T00:09:36.494Z,22.63
2023-03-04T00:12:22.358Z,25.27
2023-03-04T00:15:08.736Z,26.85
2023-03-04T00:17:54.673Z,24.05
2023-03-04T00:20:40.959Z,24.48
2023-03-04T00:23:27.394Z,29.98
2023-03-04T00:26:13.627Z,26.00
2023-03-04T00:29:01.768Z,25.08
2023-03-04T00:31:47.704Z,29.38
2023-03-04T00:34:33.512Z,24.33
2023-03-04T00:37:19.386Z,24.17
2023-03-04T00:40:06.126Z,22.45
2023-03-04T00:42:52.437Z,27.58
2023-03-04T00:45:38.277Z,23.13
2023-03-04T00:48:24.060Z,27.05
2023-03-04T00:51:09.976Z,22.33
2023-03-04T00:53:55.678Z,25.58
2023-03-04T00:56:41.763Z,25.98
2023-03-04T00:59:27.719Z,21.25
2023-03-04T01:02:13.641Z,24.75
2023-03-04T01:04:59.586Z,19.83
2023-03-04T01:07:45.488Z,21.33
2023-03-04T01:10:31.823Z,24.45
2023-03-04T01:13:18.506Z,24.58
2023-03-04T01:16:05.225Z,25.13
2023-03-04T01:18:51.374Z,29.40
2023-03-04T01:21:37.230Z,27.60
2023-03-04T01:24:23.037Z,23.42
2023-03-04T01:27:09.001Z,22.10
2023-03-04T01:29:54.878Z,23.55
2023-03-04T01:32:41.696Z,25.67
2023-03-04T01:35:28.647Z,27.92
2023-03-04T01:38:16.580Z,27.13
2023-03-04T01:41:02.555Z,23.70
2023-03-04T01:43:48.662Z,43.97
2023-03-04T01:46:34.636Z,45.25
2023-03-04T01:49:20.988Z,39.55
2023-03-04T01:52:11.470Z,37.25
2023-03-04T01:54:57.793Z,36.08
2023-03-04T01:57:43.481Z,31.92
2023-03-04T02:00:32.468Z,34.53
2023-03-04T02:03:22.225Z,32.15
2023-03-04T02:06:08.650Z,31.05
2023-03-04T02:08:54.400Z,29.20
2023-03-04T02:11:40.415Z,26.45
2023-03-04T02:14:26.401Z,35.28
2023-03-04T02:17:13.254Z,29.67
2023-03-04T02:20:25.935Z,29.55
2023-03-04T02:23:17.906Z,28.33
2023-03-04T02:26:26.074Z,27.10
2023-03-04T02:29:14.302Z,30.13
2023-03-04T02:32:00.356Z,34.92
2023-03-04T02:34:48.927Z,37.90
2023-03-04T02:37:34.611Z,46.35
2023-03-04T02:40:28.311Z,44.40
2023-03-04T02:43:14.697Z,46.63
2023-03-04T02:46:00.804Z,43.65
2023-03-04T02:48:47.082Z,33.50
2023-03-04T02:51:32.937Z,32.22
2023-03-04T02:54:21.057Z,27.73
2023-03-04T02:57:09.587Z,24.45
2023-03-04T02:59:57.782Z,26.10
2023-03-04T03:02:46.675Z,23.83
2023-03-04T03:05:35.310Z,26.17
2023-03-04T03:08:22.219Z,23.10
2023-03-04T03:11:09.412Z,21.52
2023-03-04T03:13:57.189Z,22.70
2023-03-04T03:16:43.582Z,23.40
2023-03-04T03:19:30.404Z,22.02
2023-03-04T03:22:16.995Z,22.15
2023-03-04T03:25:03.566Z,25.98
2023-03-04T03:27:49.409Z,20.85
2023-03-04T03:30:36.234Z,23.38
2023-03-04T03:33:24.807Z,21.10
2023-03-04T03:36:10.598Z,22.55
2023-03-04T03:38:57.840Z,28.85
2023-03-04T03:41:44.050Z,26.67
2023-03-04T03:44:30.148Z,23.05
2023-03-04T03:47:21.089Z,22.80
2023-03-04T03:50:07.977Z,23.27
2023-03-04T03:52:54.122Z,23.90
2023-03-04T03:55:40.014Z,25.23
2023-03-04T03:58:27.057Z,22.27
2023-03-04T04:01:13.250Z,20.85
2023-03-04T04:03:59.483Z,22.25
2023-03-04T04:06:45.386Z,23.48
2023-03-04T04:09:31.179Z,22.67
2023-03-04T04:12:18.981Z,16.98
2023-03-04T04:15:05.419Z,20.90
2023-03-04T04:17:52.009Z,15.30
2023-03-04T04:20:38.109Z,17.05
2023-03-04T04:23:24.028Z,19.80
2023-03-04T04:26:09.762Z,15.18
2023-03-04T04:28:55.659Z,18.52
2023-03-04T04:31:41.817Z,13.50
2023-03-04T04:34:28.060Z,13.18
2023-03-04T04:37:14.029Z,13.60
2023-03-04T04:39:59.839Z,13.50
2023-03-04T04:42:45.625Z,18.17
2023-03-04T04:45:31.566Z,15.52
2023-03-04T04:48:17.387Z,14.15
2023-03-04T04:51:03.283Z,17.52
2023-03-04T04:53:49.285Z,14.60
2023-03-04T04:56:35.325Z,12.60
2023-03-04T04:59:21.434Z,13.88
2023-03-04T05:02:07.357Z,12.88
2023-03-04T05:04:53.226Z,14.95
2023-03-04T05:07:40.548Z,16.90
2023-03-04T05:10:26.670Z,14.57
2023-03-04T05:13:12.625Z,14.70
2023-03-04T05:15:58.856Z,19.10
2023-03-04T05:18:45.368Z,15.40
2023-03-04T05:21:31.201Z,13.00
2023-03-04T05:24:17.155Z,13.13
2023-03-04T05:27:03.227Z,17.10
2023-03-04T05:29:50.321Z,27.52
2023-03-04T05:32:36.183Z,32.85
2023-03-04T05:35:22.174Z,26.20
2023-03-04T05:38:10.320Z,18.50
2023-03-04T05:41:01.435Z,19.52
2023-03-04T05:43:47.619Z,17.17
2023-03-04T05:46:34.017Z,14.00
2023-03-04T05:49:20.533Z,16.33
2023-03-04T05:52:06.581Z,17.40
2023-03-04T05:54:52.399Z,14.48
2023-03-04T05:57:38.286Z,14.07
2023-03-04T06:00:24.706Z,13.80
2023-03-04T06:03:22.706Z,23.13
2023-03-04T06:06:09.663Z,16.10
2023-03-04T06:08:55.781Z,19.17
2023-03-04T06:11:41.910Z,16.80
2023-03-04T06:14:27.883Z,15.48
2023-03-04T06:17:14.009Z,14.02
2023-03-04T06:20:00.103Z,14.38
2023-03-04T06:22:46.190Z,15.38
2023-03-04T06:25:32.405Z,17.88
2023-03-04T06:28:18.210Z,17.88
2023-03-04T06:31:04.218Z,14.85
2023-03-04T06:33:50.058Z,18.33
2023-03-04T06:36:35.816Z,15.50
2023-03-04T06:39:21.873Z,14.77
2023-03-04T06:42:08.697Z,16.23
2023-03-04T06:44:54.488Z,16.25
2023-03-04T06:47:40.636Z,15.27
2023-03-04T06:50:26.690Z,22.30
2023-03-04T06:53:12.556Z,22.08
2023-03-04T06:55:58.472Z,18.52
2023-03-04T06:58:44.985Z,24.13
2023-03-04T07:01:31.236Z,20.77
2023-03-04T07:04:17.244Z,22.42
2023-03-04T07:07:02.940Z,20.88
2023-03-04T07:09:48.862Z,20.25
2023-03-04T07:12:34.610Z,19.48
2023-03-04T07:15:20.444Z,18.48
2023-03-04T07:18:06.433Z,20.77
2023-03-04T07:20:53.265Z,28.40
2023-03-04T07:23:39.887Z,19.55
2023-03-04T07:26:26.100Z,20.20
2023-03-04T07:29:13.161Z,21.27
2023-03-04T07:31:59.626Z,20.20
2023-03-04T07:34:45.930Z,20.55
2023-03-04T07:37:31.940Z,24.42
2023-03-04T07:40:17.898Z,22.75
2023-03-04T07:43:04.757Z,29.65
2023-03-04T07:45:51.075Z,22.38
2023-03-04T07:48:37.564Z,25.08
2023-03-04T07:51:25.688Z,19.08
2023-03-04T07:54:11.760Z,29.48
2023-03-04T07:56:57.800Z,22.08
2023-03-04T07:59:43.743Z,24.08
2023-03-04T08:02:29.574Z,25.05
2023-03-04T08:05:15.591Z,22.92
2023-03-04T08:08:01.788Z,24.30
2023-03-04T08:10:47.676Z,25.33
2023-03-04T08:13:34.493Z,22.63
2023-03-04T08:16:22.194Z,22.67
2023-03-04T08:19:08.233Z,21.73
2023-03-04T08:21:56.344Z,23.10
2023-03-04T08:24:42.297Z,20.77
2023-03-04T08:27:28.475Z,22.58
2023-03-04T08:30:14.464Z,22.50
2023-03-04T08:33:02.894Z,24.65
2023-03-04T08:35:49.245Z,26.67
2023-03-04T08:38:35.638Z,22.02
2023-03-04T08:41:22.847Z,22.17
2023-03-04T08:44:10.403Z,18.30
2023-03-04T08:46:56.671Z,18.95
2023-03-04T08:49:42.702Z,16.33
2023-03-04T08:52:30.443Z,20.02
2023-03-04T08:55:16.250Z,18.38
2023-03-04T08:58:01.954Z,18.05
2023-03-04T09:00:49.419Z,17.02
2023-03-04T09:03:35.811Z,21.02
2023-03-04T09:06:21.995Z,21.60
2023-03-04T09:09:08.007Z,26.92
2023-03-04T09:11:53.959Z,34.30
2023-03-04T09:14:39.716Z,34.30
2023-03-04T09:17:25.607Z,32.28
2023-03-04T09:20:13.184Z,31.88
2023-03-04T09:22:59.152Z,36.17
2023-03-04T09:25:47.498Z,36.88
2023-03-04T09:28:33.384Z,60.90
2023-03-04T09:31:19.882Z,48.33
2023-03-04T09:34:05.740Z,41.67
2023-03-04T09:36:51.660Z,46.75
2023-03-04T09:39:37.518Z,40.72
2023-03-04T09:42:27.709Z,37.70
2023-03-04T09:45:17.767Z,38.00
2023-03-04T09:48:04.210Z,32.17
2023-03-04T09:51:14.646Z,34.33
2023-03-04T09:54:09.784Z,33.75
2023-03-04T09:57:14.098Z,31.98
2023-03-04T10:00:08.141Z,37.72
2023-03-04T10:03:12.103Z,32.45
2023-03-04T10:06:02.733Z,40.80
2023-03-04T10:08:58.217Z,40.40
2023-03-04T10:12:10.302Z,37.40
2023-03-04T10:15:05.749Z,30.17
2023-03-04T10:17:56.988Z,38.33
2023-03-04T10:21:06.470Z,29.50
2023-03-04T10:23:54.374Z,31.48
2023-03-04T10:26:42.897Z,34.38
2023-03-04T10:29:30.665Z,39.20
2023-03-04T10:32:18.573Z,31.23
2023-03-04T10:35:09.306Z,30.60
2023-03-04T10:37:55.180Z,32.58
2023-03-04T10:40:42.157Z,30.60
2023-03-04T10:43:28.332Z,32.55
2023-03-04T10:46:15.703Z,32.00
2023-03-04T10:49:01.727Z,29.23
2023-03-04T10:51:52.895Z,33.72
2023-03-04T10:54:48.013Z,33.55
2023-03-04T10:57:39.147Z,29.02
2023-03-04T11:00:32.097Z,31.05
2023-03-04T11:06:12.211Z,30.83
2023-03-04T11:08:59.769Z,33.47
2023-03-04T11:11:46.184Z,35.08
2023-03-04T11:14:39.062Z,36.92
2023-03-04T11:17:27.953Z,38.45
2023-03-04T11:20:32.398Z,32.03
2023-03-04T11:23:25.460Z,21.02
2023-03-04T11:26:16.658Z,25.70
2023-03-04T11:29:13.319Z,24.83
2023-03-04T11:32:13.806Z,22.90
2023-03-04T11:35:38.404Z,39.05
2023-03-04T11:38:46.881Z,40.83
2023-03-04T11:41:39.993Z,25.45
2023-03-04T11:44:26.060Z,18.50
2023-03-04T11:47:56.139Z,23.13
2023-03-04T11:50:51.840Z,17.80
2023-03-04T11:53:48.041Z,27.27
2023-03-04T11:56:44.034Z,28.73
2023-03-04T11:59:57.766Z,26.98
2023-03-04T12:02:56.153Z,30.33
2023-03-04T12:06:10.141Z,24.63
2023-03-04T12:09:02.389Z,33.10
2023-03-04T12:12:03.856Z,39.45
2023-03-04T12:15:14.891Z,33.80
2023-03-04T12:18:12.226Z,33.17
2023-03-04T12:21:13.469Z,34.40
2023-03-04T12:23:59.455Z,28.67
2023-03-04T12:27:21.324Z,26.95
2023-03-04T12:30:20.973Z,33.33
2023-03-04T12:33:21.349Z,34.42
2023-03-04T12:36:32.651Z,33.88
2023-03-04T12:39:42.889Z,30.20
2023-03-04T12:42:36.545Z,29.80
2023-03-04T12:45:33.115Z,29.75
2023-03-04T12:48:33.519Z,26.10
2023-03-04T12:51:22.310Z,34.42
2023-03-04T12:54:18.328Z,28.30
2023-03-04T12:57:14.052Z,33.30
2023-03-04T13:00:19.105Z,25.20
2023-03-04T13:03:20.271Z,28.15
2023-03-04T13:06:16.079Z,27.75
2023-03-04T13:09:07.702Z,26.52
2023-03-04T13:12:16.105Z,31.70
2023-03-04T13:15:08.165Z,30.55
2023-03-04T13:17:56.476Z,26.97
2023-03-04T13:20:42.884Z,25.77
2023-03-04T13:23:29.629Z,31.88
2023-03-04T13:26:23.823Z,31.60
2023-03-04T13:29:29.758Z,22.98
2023-03-04T13:32:36.375Z,35.13
2023-03-04T13:35:47.358Z,27.42
2023-03-04T13:38:38.661Z,34.05
2023-03-04T13:41:31.402Z,28.88
2023-03-04T13:44:43.389Z,33.80
2023-03-04T13:47:41.522Z,31.05
2023-03-04T13:50:30.271Z,36.00
2023-03-04T13:53:39.893Z,39.05
2023-03-04T13:56:37.094Z,37.60
2023-03-04T13:59:35.776Z,31.98
2023-03-04T14:02:25.993Z,33.53
2023-03-04T14:05:12.122Z,33.70
2023-03-04T14:08:17.626Z,44.15
2023-03-04T14:11:04.003Z,41.53
2023-03-04T14:13:49.807Z,29.92
2023-03-04T14:16:41.331Z,37.67
2023-03-04T14:19:39.606Z,33.63
2023-03-04T14:22:40.335Z,35.38
2023-03-04T14:25:29.442Z,33.97
2023-03-04T14:28:17.494Z,33.47
2023-03-04T14:31:03.601Z,30.13
2023-03-04T14:34:01.958Z,31.27
2023-03-04T14:36:48.200Z,35.28
2023-03-04T14:39:37.130Z,38.33
2023-03-04T14:42:26.022Z,33.92
2023-03-04T14:45:14.950Z,31.65
2023-03-04T14:48:05.666Z,38.70
2023-03-04T14:50:55.912Z,35.67
2023-03-04T14:53:54.199Z,28.55
2023-03-04T14:56:44.204Z,31.05
2023-03-04T14:59:36.137Z,33.45
2023-03-04T15:02:31.270Z,36.65
2023-03-04T15:05:26.347Z,37.35
2023-03-04T15:08:36.779Z,36.25
2023-03-04T15:11:25.897Z,30.38
2023-03-04T15:14:50.155Z,33.25
2023-03-04T15:17:39.084Z,44.67
2023-03-04T15:20:27.608Z,32.15
2023-03-04T15:23:14.882Z,38.00
2023-03-04T15:26:02.729Z,32.90
2023-03-04T15:28:48.758Z,53.88
2023-03-04T15:31:34.632Z,43.22
2023-03-04T15:34:21.416Z,39.15
2023-03-04T15:37:09.365Z,50.83
2023-03-04T15:39:57.115Z,38.17
2023-03-04T15:42:42.882Z,46.42
2023-03-04T15:45:36.398Z,45.22
2023-03-04T15:48:22.418Z,38.45
2023-03-04T15:51:17.510Z,35.83
2023-03-04T15:54:03.576Z,38.05
2023-03-04T15:56:49.744Z,38.13
2023-03-04T15:59:35.681Z,41.25
2023-03-04T16:02:24.614Z,47.72
2023-03-04T16:05:10.924Z,40.63
2023-03-04T16:07:56.783Z,46.50
2023-03-04T16:10:43.953Z,39.88
2023-03-04T16:13:30.354Z,47.05
2023-03-04T16:16:16.960Z,56.38
2023-03-04T16:19:02.649Z,64.13
2023-03-04T16:21:48.710Z,53.85
2023-03-04T16:24:35.080Z,53.50
2023-03-04T16:27:22.362Z,45.92
2023-03-04T16:30:13.237Z,56.22
2023-03-04T16:32:59.169Z,66.68
2023-03-04T16:35:45.764Z,66.38
2023-03-04T16:38:34.534Z,61.70
2023-03-04T16:41:24.494Z,57.78
2023-03-04T16:44:14.152Z,60.75
2023-03-04T16:47:00.261Z,58.35
2023-03-04T16:49:47.792Z,60.45
2023-03-04T16:52:33.912Z,66.68
2023-03-04T16:55:23.243Z,73.47
2023-03-04T16:58:09.979Z,71.13
2023-03-04T17:00:58.560Z,75.47
2023-03-04T17:03:44.928Z,76.57
2023-03-04T17:06:31.092Z,75.95
2023-03-04T17:09:16.840Z,71.47
2023-03-04T17:12:02.823Z,75.07
2023-03-04T17:14:48.724Z,79.43
2023-03-04T17:17:34.492Z,82.82
2023-03-04T17:20:20.465Z,83.80
2023-03-04T17:23:06.741Z,72.85
2023-03-04T17:25:57.665Z,79.95
2023-03-04T17:28:43.648Z,72.15
2023-03-04T17:31:29.395Z,66.65
2023-03-04T17:34:15.261Z,63.53
2023-03-04T17:37:01.506Z,61.20
2023-03-04T17:39:47.432Z,68.32
2023-03-04T17:42:33.685Z,61.67
2023-03-04T17:45:19.628Z,66.13
2023-03-04T17:48:06.358Z,75.88
2023-03-04T17:50:52.758Z,74.07
2023-03-04T17:53:39.215Z,69.72
2023-03-04T17:56:30.083Z,65.47
2023-03-04T17:59:17.422Z,72.95
2023-03-04T18:02:05.054Z,70.97
2023-03-04T18:04:50.963Z,67.10
2023-03-04T18:07:36.840Z,64.00
2023-03-04T18:10:22.598Z,77.53
2023-03-04T18:13:08.739Z,64.95
2023-03-04T18:15:55.536Z,67.45
2023-03-04T18:18:41.701Z,63.78
2023-03-04T18:21:29.056Z,59.72
2023-03-04T18:24:15.159Z,61.10
2023-03-04T18:27:00.866Z,60.15
2023-03-04T18:29:47.043Z,53.17
2023-03-04T18:32:49.510Z,59.70
2023-03-04T18:35:37.462Z,54.60
2023-03-04T18:38:24.205Z,56.03
2023-03-04T18:41:12.496Z,56.35
2023-03-04T18:43:58.719Z,56.00
2023-03-04T18:46:47.638Z,52.25
2023-03-04T18:49:34.250Z,61.85
2023-03-04T18:52:20.235Z,52.88
2023-03-04T18:55:06.660Z,51.00
2023-03-04T18:57:55.039Z,52.80
2023-03-04T19:00:41.140Z,54.45
2023-03-04T19:03:32.171Z,52.22
2023-03-04T19:06:18.722Z,55.08
2023-03-04T19:09:05.933Z,40.58
2023-03-04T19:11:52.118Z,44.65
2023-03-04T19:14:38.116Z,44.05
2023-03-04T19:17:25.741Z,46.55
2023-03-04T19:20:14.901Z,45.90
2023-03-04T19:23:09.283Z,54.55
2023-03-04T19:25:55.723Z,59.67
2023-03-04T19:28:42.401Z,57.70
2023-03-04T19:31:28.576Z,53.08
2023-03-04T19:34:14.719Z,50.30
2023-03-04T19:37:00.567Z,46.15
2023-03-04T19:39:46.587Z,52.85
2023-03-04T19:42:34.197Z,50.85
2023-03-04T19:45:20.079Z,56.08
2023-03-04T19:48:06.371Z,62.85
2023-03-04T19:50:52.792Z,60.60
2023-03-04T19:53:38.881Z,49.17
2023-03-04T19:56:25.070Z,56.55
2023-03-04T19:59:11.293Z,47.50
2023-03-04T20:01:57.231Z,52.70
2023-03-04T20:04:43.187Z,48.25
2023-03-04T20:07:28.967Z,47.28
2023-03-04T20:10:15.679Z,51.28
2023-03-04T20:13:01.884Z,51.85
2023-03-04T20:15:47.865Z,51.70
2023-03-04T20:18:34.762Z,51.17
2023-03-04T20:21:21.274Z,51.90
2023-03-04T20:24:07.968Z,51.75
2023-03-04T20:26:54.173Z,59.13
2023-03-04T20:29:40.440Z,53.78
2023-03-04T20:32:26.718Z,53.95
2023-03-04T20:35:15.297Z,57.53
2023-03-04T20:38:01.370Z,52.75
2023-03-04T20:40:47.229Z,50.03
2023-03-04T20:43:33.513Z,57.25
2023-03-04T20:46:45.378Z,49.47
2023-03-04T20:49:31.379Z,59.85
2023-03-04T20:52:18.910Z,58.90
2023-03-04T20:55:05.629Z,55.13
2023-03-04T20:57:51.504Z,56.33
2023-03-04T21:00:38.411Z,54.42
2023-03-04T21:03:24.243Z,56.53
2023-03-04T21:06:13.187Z,58.25
2023-03-04T21:09:05.644Z,54.35
2023-03-04T21:11:51.972Z,67.05
2023-03-04T21:14:40.921Z,63.10
2023-03-04T21:17:26.971Z,60.53
2023-03-04T21:20:15.306Z,54.42
2023-03-04T21:23:01.437Z,60.85
2023-03-04T21:25:48.798Z,55.20
2023-03-04T21:28:34.544Z,51.13
2023-03-04T21:31:23.400Z,53.40
2023-03-04T21:34:23.378Z,47.20
2023-03-04T21:37:10.229Z,59.85
2023-03-04T21:39:56.521Z,56.22
2023-03-04T21:42:45.988Z,49.97
2023-03-04T21:45:33.091Z,52.95
2023-03-04T21:48:21.038Z,57.75
2023-03-04T21:51:08.574Z,54.08
2023-03-04T21:53:55.086Z,53.80
2023-03-04T21:56:42.066Z,52.22
2023-03-04T21:59:28.494Z,53.97
2023-03-04T22:02:19.550Z,52.50
2023-03-04T22:05:06.627Z,48.17
2023-03-04T22:07:52.680Z,50.67
2023-03-04T22:10:40.748Z,50.38
2023-03-04T22:13:26.811Z,45.88
2023-03-04T22:16:12.957Z,54.80
2023-03-04T22:18:59.522Z,49.67
2023-03-04T22:21:46.071Z,45.63
2023-03-04T22:24:32.632Z,49.40
2023-03-04T22:27:19.060Z,48.72
2023-03-04T22:30:08.848Z,43.15
2023-03-04T22:32:54.968Z,60.05
2023-03-04T22:35:41.494Z,48.35
2023-03-04T22:38:28.215Z,45.75
2023-03-04T22:41:16.909Z,44.60
2023-03-04T22:44:04.805Z,48.90
2023-03-04T22:46:50.719Z,51.28
2023-03-04T22:49:37.868Z,48.13
2023-03-04T22:52:23.928Z,46.33
2023-03-04T22:55:12.069Z,48.10
2023-03-04T22:57:58.080Z,49.47
2023-03-04T23:00:44.022Z,49.60
2023-03-04T23:03:33.062Z,55.60
2023-03-04T23:06:26.228Z,52.20
2023-03-04T23:09:12.520Z,51.42
2023-03-04T23:11:58.296Z,48.80
2023-03-04T23:14:44.908Z,48.45
2023-03-04T23:17:31.008Z,47.70
2023-03-04T23:20:18.979Z,45.47
2023-03-04T23:23:04.902Z,47.00
2023-03-04T23:25:52.137Z,47.42
2023-03-04T23:28:37.924Z,44.60
2023-03-04T23:31:24.342Z,47.83
2023-03-04T23:34:11.405Z,42.00
2023-03-04T23:36:57.420Z,43.53
2023-03-04T23:39:43.333Z,45.65
2023-03-04T23:42:29.084Z,43.80
2023-03-04T23:45:15.109Z,49.58
2023-03-04T23:48:01.104Z,44.08
2023-03-04T23:50:52.088Z,44.08
2023-03-04T23:53:39.190Z,51.78
2023-03-04T23:56:27.822Z,48.28
2023-03-04T23:59:13.859Z,51.10
